createdAt,value
2022-09-20T00:01:32.504Z,8.03
2022-09-20T00:04:01.418Z,7.90
2022-09-20T00:06:30.044Z,7.93
2022-09-20T00:08:57.286Z,7.92
2022-09-20T00:11:26.546Z,8.00
2022-09-20T00:13:56.371Z,7.91
2022-09-20T00:16:32.377Z,8.03
2022-09-20T00:19:01.252Z,7.99
2022-09-20T00:21:29.961Z,7.95
2022-09-20T00:23:57.647Z,7.94
2022-09-20T00:26:25.548Z,7.91
2022-09-20T00:28:52.285Z,7.91
2022-09-20T00:31:19.561Z,7.93
2022-09-20T00:34:04.844Z,7.98
2022-09-20T00:36:31.661Z,7.99
2022-09-20T00:39:00.188Z,7.99
2022-09-20T00:41:27.029Z,7.95
2022-09-20T00:43:54.581Z,8.14
2022-09-20T00:46:24.479Z,8.22
2022-09-20T00:48:59.075Z,8.33
2022-09-20T00:51:31.387Z,8.41
2022-09-20T00:54:02.101Z,8.44
2022-09-20T00:56:32.886Z,8.45
2022-09-20T00:59:34.253Z,8.51
2022-09-20T01:02:12.401Z,8.52
2022-09-20T01:04:51.245Z,8.55
2022-09-20T01:10:58.341Z,8.44
2022-09-20T01:13:24.925Z,8.54
2022-09-20T01:16:09.214Z,8.51
2022-09-20T01:18:59.162Z,8.57
2022-09-20T01:21:52.743Z,8.54
2022-09-20T01:24:47.570Z,8.51
2022-09-20T01:31:04.549Z,8.49
2022-09-20T01:33:44.901Z,8.40
2022-09-20T01:36:17.070Z,8.35
2022-09-20T01:38:52.483Z,8.26
2022-09-20T01:41:28.349Z,8.22
2022-09-20T01:44:31.856Z,8.14
2022-09-20T01:47:09.120Z,8.05
2022-09-20T01:49:59.023Z,8.05
2022-09-20T01:52:57.566Z,7.98
2022-09-20T01:55:45.257Z,7.92
2022-09-20T01:58:20.725Z,7.90
2022-09-20T02:01:05.522Z,7.87
2022-09-20T02:03:43.902Z,7.83
2022-09-20T02:06:41.017Z,7.77
2022-09-20T02:09:26.588Z,7.76
2022-09-20T02:12:30.510Z,7.83
2022-09-20T02:15:48.500Z,7.74
2022-09-20T02:18:15.981Z,7.73
2022-09-20T02:20:52.736Z,7.77
2022-09-20T02:23:42.391Z,7.89
2022-09-20T02:27:00.610Z,7.87
2022-09-20T02:29:45.046Z,7.88
2022-09-20T02:32:46.620Z,7.83
2022-09-20T02:35:25.704Z,7.88
2022-09-20T02:37:58.616Z,7.76
2022-09-20T02:40:40.333Z,7.91
2022-09-20T02:43:25.451Z,7.95
2022-09-20T02:46:11.656Z,7.95
2022-09-20T02:49:16.919Z,7.96
2022-09-20T02:51:58.255Z,7.97
2022-09-20T02:54:42.930Z,8.03
2022-09-20T02:57:33.650Z,8.01
2022-09-20T03:00:38.566Z,7.99
2022-09-20T03:03:18.604Z,8.01
2022-09-20T03:06:20.968Z,8.04
2022-09-20T03:09:11.066Z,7.92
2022-09-20T03:11:44.265Z,8.00
2022-09-20T03:14:22.958Z,8.03
2022-09-20T03:16:59.664Z,8.06
2022-09-20T03:19:35.173Z,8.03
2022-09-20T03:22:22.946Z,8.03
2022-09-20T03:25:07.915Z,8.07
2022-09-20T03:28:06.674Z,8.07
2022-09-20T03:30:51.636Z,8.03
2022-09-20T03:33:36.387Z,8.06
2022-09-20T03:36:23.004Z,8.02
2022-09-20T03:39:17.048Z,7.97
2022-09-20T03:41:53.552Z,7.97
2022-09-20T03:44:38.803Z,8.00
2022-09-20T03:47:30.651Z,7.96
2022-09-20T03:50:37.469Z,7.99
2022-09-20T03:53:26.001Z,8.04
2022-09-20T03:56:14.074Z,7.99
2022-09-20T03:59:02.807Z,7.93
2022-09-20T04:01:49.408Z,7.92
2022-09-20T04:04:22.075Z,7.92
2022-09-20T04:07:19.579Z,7.87
2022-09-20T04:10:05.079Z,7.94
2022-09-20T04:12:57.104Z,7.87
2022-09-20T04:15:38.281Z,7.78
2022-09-20T04:18:16.897Z,7.82
2022-09-20T04:21:00.133Z,7.88
2022-09-20T04:24:05.827Z,7.96
2022-09-20T04:26:39.057Z,7.97
2022-09-20T04:29:08.577Z,8.00
2022-09-20T04:32:00.116Z,8.03
2022-09-20T04:34:52.958Z,7.98
2022-09-20T04:37:26.608Z,7.95
2022-09-20T04:40:01.725Z,7.92
2022-09-20T04:42:52.511Z,7.89
2022-09-20T04:45:34.082Z,7.91
2022-09-20T04:48:38.174Z,7.85
2022-09-20T04:51:22.903Z,7.78
2022-09-20T04:54:34.877Z,7.80
2022-09-20T04:57:46.393Z,7.78
2022-09-20T05:00:20.485Z,7.75
2022-09-20T05:02:59.162Z,7.77
2022-09-20T05:05:46.096Z,7.70
2022-09-20T05:08:34.002Z,7.71
2022-09-20T05:11:12.702Z,7.79
2022-09-20T05:13:42.191Z,7.75
2022-09-20T05:16:21.786Z,7.91
2022-09-20T05:18:56.869Z,7.89
2022-09-20T05:22:31.330Z,8.16
2022-09-20T05:25:07.288Z,8.29
2022-09-20T05:27:43.480Z,8.20
2022-09-20T05:30:48.333Z,8.26
2022-09-20T05:33:15.170Z,8.28
2022-09-20T05:35:56.856Z,8.40
2022-09-20T05:38:32.545Z,8.38
2022-09-20T05:41:24.385Z,8.52
2022-09-20T05:44:16.230Z,8.59
2022-09-20T05:47:10.675Z,8.60
2022-09-20T05:50:15.543Z,8.73
2022-09-20T05:52:52.949Z,8.86
2022-09-20T05:56:01.037Z,9.06
2022-09-20T05:58:58.570Z,9.29
2022-09-20T06:01:26.918Z,9.31
2022-09-20T06:03:59.553Z,9.38
2022-09-20T06:06:39.715Z,9.46
2022-09-20T06:09:08.909Z,9.68
2022-09-20T06:12:17.922Z,9.82
2022-09-20T06:15:15.730Z,9.97
2022-09-20T06:18:15.701Z,9.95
2022-09-20T06:21:20.607Z,9.97
2022-09-20T06:23:47.324Z,9.98
2022-09-20T06:26:17.355Z,10.07
2022-09-20T06:28:49.133Z,10.04
2022-09-20T06:31:17.004Z,10.01
2022-09-20T06:33:50.356Z,9.92
2022-09-20T06:36:46.325Z,9.89
2022-09-20T06:39:43.466Z,9.92
2022-09-20T06:42:10.586Z,9.85
2022-09-20T06:44:43.189Z,9.80
2022-09-20T06:47:13.860Z,9.91
2022-09-20T06:49:44.520Z,10.08
2022-09-20T06:52:15.601Z,10.14
2022-09-20T06:54:45.739Z,10.13
2022-09-20T06:57:14.307Z,10.40
2022-09-20T06:59:40.805Z,11.18
2022-09-20T07:02:08.314Z,11.39
2022-09-20T07:04:35.250Z,11.45
2022-09-20T07:07:06.199Z,11.54
2022-09-20T07:09:35.772Z,11.36
2022-09-20T07:12:02.461Z,11.36
2022-09-20T07:14:28.984Z,11.05
2022-09-20T07:16:55.493Z,10.81
2022-09-20T07:19:23.444Z,10.90
2022-09-20T07:21:49.952Z,11.33
2022-09-20T07:24:16.466Z,11.48
2022-09-20T07:27:00.160Z,11.29
2022-09-20T07:29:27.465Z,11.58
2022-09-20T07:31:54.646Z,11.60
2022-09-20T07:34:21.230Z,11.53
2022-09-20T07:36:49.296Z,11.60
2022-09-20T07:39:16.934Z,11.46
2022-09-20T07:41:51.110Z,11.46
2022-09-20T07:44:21.534Z,11.13
2022-09-20T07:46:53.058Z,10.95
2022-09-20T07:49:20.465Z,10.99
2022-09-20T07:51:47.382Z,10.88
2022-09-20T07:54:13.965Z,10.57
2022-09-20T07:56:41.556Z,10.54
2022-09-20T07:59:10.123Z,10.35
2022-09-20T08:01:37.587Z,10.38
2022-09-20T08:04:08.915Z,10.25
2022-09-20T08:06:43.955Z,10.24
2022-09-20T08:09:12.652Z,10.10
2022-09-20T08:11:40.514Z,10.26
2022-09-20T08:14:09.151Z,10.40
2022-09-20T08:16:47.959Z,10.88
2022-09-20T08:19:20.549Z,11.15
2022-09-20T08:21:47.547Z,11.70
2022-09-20T08:24:14.983Z,12.11
2022-09-20T08:26:41.799Z,13.05
2022-09-20T08:29:08.517Z,13.91
2022-09-20T08:31:38.559Z,14.76
2022-09-20T08:34:06.530Z,16.37
2022-09-20T08:36:36.672Z,18.55
2022-09-20T08:41:56.709Z,20.57
2022-09-20T08:44:58.639Z,23.50
2022-09-20T08:47:29.523Z,22.24
2022-09-20T08:49:57.643Z,19.78
2022-09-20T08:52:37.133Z,21.19
2022-09-20T08:55:13.616Z,23.10
2022-09-20T08:57:40.187Z,24.03
2022-09-20T09:00:07.484Z,21.06
2022-09-20T09:02:34.403Z,20.23
2022-09-20T09:05:03.127Z,20.85
2022-09-20T09:07:29.652Z,19.80
2022-09-20T09:09:56.695Z,17.51
2022-09-20T09:12:30.046Z,16.52
2022-09-20T09:15:32.700Z,16.42
2022-09-20T09:17:59.253Z,16.80
2022-09-20T09:20:26.060Z,16.24
2022-09-20T09:23:05.088Z,15.93
2022-09-20T09:25:39.874Z,15.78
2022-09-20T09:28:06.343Z,16.35
2022-09-20T09:30:34.319Z,16.42
2022-09-20T09:33:28.085Z,18.01
2022-09-20T09:36:08.982Z,20.92
2022-09-20T09:38:38.123Z,24.02
2022-09-20T09:41:10.414Z,23.12
2022-09-20T09:43:40.531Z,23.19
2022-09-20T09:46:21.484Z,20.79
2022-09-20T09:49:05.345Z,19.65
2022-09-20T09:51:33.565Z,18.77
2022-09-20T09:54:01.017Z,17.28
2022-09-20T09:56:44.074Z,15.70
2022-09-20T09:59:25.860Z,14.06
2022-09-20T10:02:11.019Z,13.08
2022-09-20T10:04:42.140Z,12.41
2022-09-20T10:07:08.552Z,12.24
2022-09-20T10:09:57.667Z,12.01
2022-09-20T10:12:46.672Z,12.17
2022-09-20T10:15:39.251Z,12.05
2022-09-20T10:18:05.696Z,12.39
2022-09-20T10:20:45.813Z,16.02
2022-09-20T10:24:04.707Z,18.53
2022-09-20T10:26:37.534Z,18.05
2022-09-20T10:29:31.607Z,18.00
2022-09-20T10:32:15.440Z,19.87
2022-09-20T10:34:57.388Z,22.06
2022-09-20T10:37:52.972Z,23.03
2022-09-20T10:41:13.299Z,22.93
2022-09-20T10:43:42.733Z,23.52
2022-09-20T10:46:33.019Z,23.62
2022-09-20T10:49:40.133Z,23.90
2022-09-20T10:52:38.379Z,21.57
2022-09-20T10:55:18.795Z,20.91
2022-09-20T10:58:09.744Z,22.29
2022-09-20T11:01:01.553Z,23.51
2022-09-20T11:04:07.128Z,23.66
2022-09-20T11:07:05.434Z,24.13
2022-09-20T11:09:39.800Z,23.68
2022-09-20T11:12:32.347Z,22.73
2022-09-20T11:15:05.162Z,21.30
2022-09-20T11:17:42.258Z,19.78
2022-09-20T11:20:32.559Z,19.69
2022-09-20T11:23:19.385Z,18.11
2022-09-20T11:25:55.481Z,17.71
2022-09-20T11:28:33.879Z,17.28
2022-09-20T11:31:35.556Z,17.53
2022-09-20T11:34:14.330Z,17.21
2022-09-20T11:36:44.069Z,16.86
2022-09-20T11:39:15.539Z,16.80
2022-09-20T11:41:43.127Z,17.22
2022-09-20T11:44:17.045Z,17.73
2022-09-20T11:46:52.629Z,17.58
2022-09-20T11:49:30.233Z,16.91
2022-09-20T11:52:14.486Z,16.86
2022-09-20T11:55:01.320Z,16.31
2022-09-20T11:57:28.485Z,15.27
2022-09-20T11:59:57.301Z,14.83
2022-09-20T12:02:35.041Z,14.80
2022-09-20T12:05:03.721Z,14.37
2022-09-20T12:07:38.250Z,14.38
2022-09-20T12:10:20.711Z,15.14
2022-09-20T12:12:51.086Z,14.73
2022-09-20T12:15:26.304Z,14.63
2022-09-20T12:17:52.751Z,14.86
2022-09-20T12:20:42.444Z,16.22
2022-09-20T12:23:43.176Z,18.32
2022-09-20T12:26:22.811Z,17.87
2022-09-20T12:28:58.757Z,16.16
2022-09-20T12:31:26.176Z,16.18
2022-09-20T12:33:59.444Z,15.68
2022-09-20T12:36:28.540Z,15.21
2022-09-20T12:39:00.862Z,15.05
2022-09-20T12:41:29.166Z,14.69
2022-09-20T12:44:02.664Z,14.61
2022-09-20T12:46:41.070Z,14.56
2022-09-20T12:49:37.833Z,14.51
2022-09-20T12:52:23.244Z,15.11
2022-09-20T12:54:56.373Z,16.63
2022-09-20T12:57:32.154Z,17.65
2022-09-20T13:00:01.913Z,17.16
2022-09-20T13:02:50.946Z,17.13
2022-09-20T13:05:38.498Z,17.91
2022-09-20T13:08:27.690Z,18.56
2022-09-20T13:11:12.460Z,17.59
2022-09-20T13:13:45.039Z,16.98
2022-09-20T13:16:31.990Z,16.81
2022-09-20T13:19:07.805Z,16.64
2022-09-20T13:21:38.136Z,17.37
2022-09-20T13:24:05.525Z,18.00
2022-09-20T13:26:51.868Z,19.89
2022-09-20T13:29:35.123Z,20.91
2022-09-20T13:32:24.694Z,20.81
2022-09-20T13:35:09.594Z,20.48
2022-09-20T13:37:57.717Z,19.54
2022-09-20T13:40:32.056Z,17.93
2022-09-20T13:43:22.234Z,17.55
2022-09-20T13:45:53.875Z,16.59
2022-09-20T13:48:24.477Z,16.12
2022-09-20T13:50:53.680Z,15.55
2022-09-20T13:53:39.763Z,14.96
2022-09-20T13:56:27.415Z,14.93
2022-09-20T13:58:55.814Z,14.83
2022-09-20T14:01:32.297Z,14.50
2022-09-20T14:04:08.205Z,14.29
2022-09-20T14:06:35.826Z,14.29
2022-09-20T14:09:10.507Z,14.30
2022-09-20T14:11:39.020Z,14.40
2022-09-20T14:14:07.942Z,14.36
2022-09-20T14:16:48.970Z,14.68
2022-09-20T14:19:21.074Z,15.19
2022-09-20T14:21:48.314Z,15.63
2022-09-20T14:24:14.782Z,15.63
2022-09-20T14:26:42.883Z,15.17
2022-09-20T14:29:33.886Z,15.12
2022-09-20T14:32:24.203Z,14.64
2022-09-20T14:34:56.681Z,13.77
2022-09-20T14:37:30.547Z,13.35
2022-09-20T14:39:59.880Z,12.97
2022-09-20T14:42:47.033Z,12.08
2022-09-20T14:45:30.413Z,11.37
2022-09-20T14:48:11.655Z,11.09
2022-09-20T14:50:46.417Z,10.79
2022-09-20T14:53:12.813Z,10.68
2022-09-20T14:56:00.797Z,10.71
2022-09-20T14:58:27.619Z,10.78
2022-09-20T15:00:57.948Z,10.62
2022-09-20T15:03:32.344Z,10.49
2022-09-20T15:05:58.976Z,10.39
2022-09-20T15:08:25.991Z,10.35
2022-09-20T15:10:52.551Z,10.38
2022-09-20T15:13:19.201Z,10.38
2022-09-20T15:15:50.813Z,10.38
2022-09-20T15:18:26.658Z,10.32
2022-09-20T15:20:54.804Z,10.48
2022-09-20T15:23:21.729Z,10.54
2022-09-20T15:25:53.272Z,10.52
2022-09-20T15:28:20.410Z,10.68
2022-09-20T15:30:48.671Z,10.80
2022-09-20T15:33:15.325Z,10.76
2022-09-20T15:35:43.389Z,10.76
2022-09-20T15:38:11.783Z,10.74
2022-09-20T15:40:42.791Z,10.56
2022-09-20T15:43:13.309Z,10.52
2022-09-20T15:45:54.845Z,10.40
2022-09-20T15:48:24.575Z,10.14
2022-09-20T15:51:06.756Z,10.08
2022-09-20T15:53:37.480Z,10.08
2022-09-20T15:56:14.391Z,10.17
2022-09-20T15:58:46.195Z,10.16
2022-09-20T16:01:16.672Z,10.11
2022-09-20T16:03:44.678Z,10.13
2022-09-20T16:06:11.567Z,10.21
2022-09-20T16:08:40.340Z,10.13
2022-09-20T16:11:08.802Z,9.97
2022-09-20T16:13:38.827Z,9.92
2022-09-20T16:16:07.408Z,9.79
2022-09-20T16:18:54.958Z,9.67
2022-09-20T16:21:22.137Z,9.54
2022-09-20T16:23:50.913Z,9.51
2022-09-20T16:26:19.661Z,9.46
2022-09-20T16:28:47.785Z,9.44
2022-09-20T16:31:26.569Z,9.57
2022-09-20T16:33:53.078Z,9.57
2022-09-20T16:36:24.292Z,9.64
2022-09-20T16:38:56.801Z,9.61
2022-09-20T16:41:25.499Z,9.57
2022-09-20T16:43:53.053Z,9.51
2022-09-20T16:46:20.995Z,9.45
2022-09-20T16:48:48.463Z,9.45
2022-09-20T16:51:15.456Z,9.41
2022-09-20T16:53:43.483Z,9.41
2022-09-20T16:56:27.383Z,9.45
2022-09-20T16:58:54.316Z,9.51
2022-09-20T17:01:21.664Z,9.40
2022-09-20T17:03:48.740Z,9.29
2022-09-20T17:06:16.503Z,9.20
2022-09-20T17:08:44.871Z,9.24
2022-09-20T17:11:20.437Z,9.16
2022-09-20T17:13:47.592Z,9.18
2022-09-20T17:16:16.614Z,8.94
2022-09-20T17:18:43.763Z,8.96
2022-09-20T17:21:13.778Z,8.85
2022-09-20T17:23:50.664Z,8.66
2022-09-20T17:26:28.695Z,8.55
2022-09-20T17:28:56.394Z,8.35
2022-09-20T17:31:28.567Z,8.43
2022-09-20T17:33:55.786Z,8.45
2022-09-20T17:36:22.320Z,8.56
2022-09-20T17:38:54.306Z,8.73
2022-09-20T17:41:21.998Z,8.76
2022-09-20T17:43:53.023Z,8.88
2022-09-20T17:46:26.122Z,8.84
2022-09-20T17:48:55.502Z,8.82
2022-09-20T17:51:24.683Z,8.76
2022-09-20T17:53:52.895Z,8.87
2022-09-20T17:56:20.840Z,8.95
2022-09-20T17:58:47.333Z,8.86
2022-09-20T18:01:16.294Z,8.81
2022-09-20T18:03:45.993Z,8.82
2022-09-20T18:06:22.220Z,8.69
2022-09-20T18:08:51.469Z,8.52
2022-09-20T18:11:20.924Z,8.48
2022-09-20T18:13:47.668Z,8.39
2022-09-20T18:16:16.300Z,8.47
2022-09-20T18:18:44.580Z,8.50
2022-09-20T18:21:19.969Z,8.50
2022-09-20T18:23:47.545Z,8.57
2022-09-20T18:26:22.067Z,8.48
2022-09-20T18:29:14.127Z,8.54
2022-09-20T18:31:49.914Z,8.54
2022-09-20T18:34:21.146Z,8.38
2022-09-20T18:36:55.786Z,8.39
2022-09-20T18:39:23.168Z,8.33
2022-09-20T18:41:50.523Z,8.37
2022-09-20T18:44:18.473Z,8.32
2022-09-20T18:46:45.847Z,8.32
2022-09-20T18:49:15.039Z,8.35
2022-09-20T18:51:42.786Z,8.29
2022-09-20T18:54:11.003Z,8.22
2022-09-20T18:56:40.050Z,8.14
2022-09-20T18:59:28.149Z,8.09
2022-09-20T19:02:12.389Z,8.09
2022-09-20T19:05:06.800Z,7.95
2022-09-20T19:07:48.789Z,7.86
2022-09-20T19:10:53.481Z,7.78
2022-09-20T19:13:38.175Z,7.69
2022-09-20T19:16:10.137Z,7.63
2022-09-20T19:18:56.316Z,7.52
2022-09-20T19:21:58.511Z,7.40
2022-09-20T19:25:01.312Z,7.32
2022-09-20T19:27:28.228Z,7.20
2022-09-20T19:29:55.091Z,6.93
2022-09-20T19:32:26.029Z,6.99
2022-09-20T19:35:01.551Z,6.87
2022-09-20T19:37:34.090Z,6.87
2022-09-20T19:40:21.016Z,6.75
2022-09-20T19:43:19.327Z,6.64
2022-09-20T19:46:03.278Z,6.46
2022-09-20T19:48:38.946Z,6.46
2022-09-20T19:51:11.107Z,6.36
2022-09-20T19:53:38.346Z,6.37
2022-09-20T19:56:27.684Z,6.45
2022-09-20T19:58:56.141Z,6.56
2022-09-20T20:01:24.562Z,6.59
2022-09-20T20:03:55.225Z,6.72
2022-09-20T20:06:33.262Z,6.82
2022-09-20T20:09:07.131Z,6.74
2022-09-20T20:11:49.498Z,6.60
2022-09-20T20:14:36.368Z,6.58
2022-09-20T20:17:09.020Z,6.59
2022-09-20T20:20:07.558Z,6.57
2022-09-20T20:22:56.838Z,6.48
2022-09-20T20:26:06.305Z,6.24
2022-09-20T20:28:32.873Z,6.13
2022-09-20T20:31:03.519Z,6.03
2022-09-20T20:33:31.090Z,5.88
2022-09-20T20:36:00.143Z,5.80
2022-09-20T20:38:27.462Z,5.61
2022-09-20T20:41:14.990Z,5.59
2022-09-20T20:43:43.563Z,5.50
2022-09-20T20:46:12.290Z,5.47
2022-09-20T20:48:38.808Z,5.39
2022-09-20T20:51:09.524Z,5.39
2022-09-20T20:53:38.775Z,5.48
2022-09-20T20:56:08.056Z,5.37
2022-09-20T20:58:36.399Z,5.37
2022-09-20T21:01:14.844Z,5.33
2022-09-20T21:03:43.862Z,5.36
2022-09-20T21:06:10.753Z,5.24
2022-09-20T21:08:45.761Z,5.21
2022-09-20T21:11:23.433Z,5.07
2022-09-20T21:13:55.292Z,5.00
2022-09-20T21:16:27.548Z,4.92
2022-09-20T21:18:54.655Z,4.87
2022-09-20T21:21:22.636Z,4.71
2022-09-20T21:23:51.529Z,4.75
2022-09-20T21:26:18.809Z,4.72
2022-09-20T21:28:51.290Z,4.70
2022-09-20T21:31:19.347Z,4.61
2022-09-20T21:33:45.837Z,4.73
2022-09-20T21:36:17.190Z,4.62
2022-09-20T21:38:44.595Z,4.75
2022-09-20T21:41:22.867Z,4.65
2022-09-20T21:43:53.205Z,4.44
2022-09-20T21:46:28.366Z,4.51
2022-09-20T21:48:56.960Z,4.47
2022-09-20T21:51:25.001Z,4.49
2022-09-20T21:53:58.214Z,4.46
2022-09-20T21:56:27.673Z,4.45
2022-09-20T21:58:54.792Z,4.45
2022-09-20T22:01:26.609Z,4.41
2022-09-20T22:04:00.919Z,4.33
2022-09-20T22:06:36.359Z,4.16
2022-09-20T22:09:09.164Z,4.01
2022-09-20T22:11:41.648Z,3.93
2022-09-20T22:14:09.951Z,3.93
2022-09-20T22:16:38.967Z,3.91
2022-09-20T22:19:07.837Z,4.13
2022-09-20T22:21:36.914Z,4.11
2022-09-20T22:24:06.455Z,4.12
2022-09-20T22:26:44.629Z,4.04
2022-09-20T22:29:11.716Z,3.93
2022-09-20T22:31:47.226Z,3.87
2022-09-20T22:34:16.064Z,3.96
2022-09-20T22:36:42.834Z,4.03
2022-09-20T22:39:11.390Z,4.03
2022-09-20T22:41:39.401Z,4.03
2022-09-20T22:44:06.216Z,3.91
2022-09-20T22:46:33.771Z,3.92
2022-09-20T22:49:00.760Z,4.02
2022-09-20T22:51:30.913Z,3.96
2022-09-20T22:53:57.244Z,3.96
2022-09-20T22:56:25.971Z,3.90
2022-09-20T22:58:55.374Z,3.91
2022-09-20T23:01:24.346Z,3.89
2022-09-20T23:04:19.508Z,3.83
2022-09-20T23:06:48.202Z,3.81
2022-09-20T23:09:17.682Z,3.72
2022-09-20T23:11:45.037Z,3.73
2022-09-20T23:14:14.451Z,3.67
2022-09-20T23:16:41.565Z,3.71
2022-09-20T23:19:09.129Z,3.72
2022-09-20T23:21:38.665Z,3.73
2022-09-20T23:24:07.909Z,3.75
2022-09-20T23:26:36.837Z,3.89
2022-09-20T23:29:08.911Z,3.88
2022-09-20T23:31:37.696Z,3.95
2022-09-20T23:34:06.942Z,3.97
2022-09-20T23:36:37.561Z,3.85
2022-09-20T23:39:05.403Z,3.82
2022-09-20T23:41:32.056Z,3.81
2022-09-20T23:43:58.824Z,3.88
2022-09-20T23:46:26.873Z,4.05
2022-09-20T23:48:53.871Z,4.04
2022-09-20T23:51:23.868Z,3.97
2022-09-20T23:53:51.761Z,4.01
2022-09-20T23:56:19.614Z,4.08
2022-09-20T23:58:46.408Z,4.09
